sensor_id;sensor_type;location;lat;lon;timestamp;P1;durP1;ratioP1;P2;durP2;ratioP2
29240;SDS011;16268;49.880;8.648;2023-03-11T00:00:12;3.40;;;1.20;;
29240;SDS011;16268;49.880;8.648;2023-03-11T00:02:41;5.03;;;1.65;;
29240;SDS011;16268;49.880;8.648;2023-03-11T00:05:08;4.00;;;1.23;;
29240;SDS011;16268;49.880;8.648;2023-03-11T00:07:36;3.05;;;1.10;;
29240;SDS011;16268;49.880;8.648;2023-03-11T00:10:03;5.00;;;1.50;;
29240;SDS011;16268;49.880;8.648;2023-03-11T00:12:30;3.88;;;1.10;;
29240;SDS011;16268;49.880;8.648;2023-03-11T00:14:55;4.57;;;1.10;;
29240;SDS011;16268;49.880;8.648;2023-03-11T00:17:21;4.00;;;0.95;;
29240;SDS011;16268;49.880;8.648;2023-03-11T00:19:47;3.13;;;0.80;;
29240;SDS011;16268;49.880;8.648;2023-03-11T00:22:12;4.50;;;0.88;;
29240;SDS011;16268;49.880;8.648;2023-03-11T00:24:38;1.90;;;0.68;;
29240;SDS011;16268;49.880;8.648;2023-03-11T00:27:03;2.72;;;0.70;;
29240;SDS011;16268;49.880;8.648;2023-03-11T00:29:29;3.05;;;0.80;;
29240;SDS011;16268;49.880;8.648;2023-03-11T00:31:54;1.75;;;0.77;;
29240;SDS011;16268;49.880;8.648;2023-03-11T00:34:20;2.78;;;0.90;;
29240;SDS011;16268;49.880;8.648;2023-03-11T00:36:45;2.15;;;0.77;;
29240;SDS011;16268;49.880;8.648;2023-03-11T00:39:11;1.30;;;0.55;;
29240;SDS011;16268;49.880;8.648;2023-03-11T00:41:37;2.22;;;0.70;;
29240;SDS011;16268;49.880;8.648;2023-03-11T00:44:02;1.27;;;0.60;;
29240;SDS011;16268;49.880;8.648;2023-03-11T00:46:28;3.17;;;1.00;;
29240;SDS011;16268;49.880;8.648;2023-03-11T00:48:55;1.67;;;0.95;;
29240;SDS011;16268;49.880;8.648;2023-03-11T00:51:21;4.35;;;0.75;;
29240;SDS011;16268;49.880;8.648;2023-03-11T00:53:46;2.05;;;0.80;;
29240;SDS011;16268;49.880;8.648;2023-03-11T00:56:13;3.78;;;0.80;;
29240;SDS011;16268;49.880;8.648;2023-03-11T00:58:39;3.38;;;0.70;;
29240;SDS011;16268;49.880;8.648;2023-03-11T01:01:07;2.03;;;0.60;;
29240;SDS011;16268;49.880;8.648;2023-03-11T01:03:35;2.47;;;0.70;;
29240;SDS011;16268;49.880;8.648;2023-03-11T01:06:00;2.60;;;0.70;;
29240;SDS011;16268;49.880;8.648;2023-03-11T01:08:26;4.80;;;0.88;;
29240;SDS011;16268;49.880;8.648;2023-03-11T01:10:53;3.35;;;0.85;;
29240;SDS011;16268;49.880;8.648;2023-03-11T01:13:19;3.08;;;0.80;;
29240;SDS011;16268;49.880;8.648;2023-03-11T01:15:45;4.25;;;0.70;;
29240;SDS011;16268;49.880;8.648;2023-03-11T01:18:10;3.30;;;1.00;;
29240;SDS011;16268;49.880;8.648;2023-03-11T01:20:38;3.75;;;0.90;;
29240;SDS011;16268;49.880;8.648;2023-03-11T01:23:04;4.70;;;0.85;;
29240;SDS011;16268;49.880;8.648;2023-03-11T01:25:30;8.07;;;1.25;;
29240;SDS011;16268;49.880;8.648;2023-03-11T01:27:55;2.85;;;0.77;;
29240;SDS011;16268;49.880;8.648;2023-03-11T01:30:22;3.95;;;0.90;;
29240;SDS011;16268;49.880;8.648;2023-03-11T01:32:49;2.15;;;0.52;;
29240;SDS011;16268;49.880;8.648;2023-03-11T01:35:16;3.22;;;0.93;;
29240;SDS011;16268;49.880;8.648;2023-03-11T01:37:42;2.67;;;0.60;;
29240;SDS011;16268;49.880;8.648;2023-03-11T01:40:10;3.95;;;0.70;;
29240;SDS011;16268;49.880;8.648;2023-03-11T01:42:43;5.35;;;0.75;;
29240;SDS011;16268;49.880;8.648;2023-03-11T01:48:11;2.05;;;0.70;;
29240;SDS011;16268;49.880;8.648;2023-03-11T01:50:38;2.88;;;0.80;;
29240;SDS011;16268;49.880;8.648;2023-03-11T01:53:07;4.07;;;0.90;;
29240;SDS011;16268;49.880;8.648;2023-03-11T01:55:34;4.78;;;1.40;;
29240;SDS011;16268;49.880;8.648;2023-03-11T01:58:02;4.00;;;1.02;;
29240;SDS011;16268;49.880;8.648;2023-03-11T02:00:31;2.90;;;0.82;;
29240;SDS011;16268;49.880;8.648;2023-03-11T02:02:58;7.28;;;1.10;;
29240;SDS011;16268;49.880;8.648;2023-03-11T02:05:27;4.32;;;0.90;;
29240;SDS011;16268;49.880;8.648;2023-03-11T02:07:53;2.75;;;0.85;;
29240;SDS011;16268;49.880;8.648;2023-03-11T02:10:19;5.43;;;0.93;;
29240;SDS011;16268;49.880;8.648;2023-03-11T02:12:46;4.07;;;1.05;;
29240;SDS011;16268;49.880;8.648;2023-03-11T02:15:14;5.68;;;1.20;;
29240;SDS011;16268;49.880;8.648;2023-03-11T02:17:40;3.03;;;0.73;;
29240;SDS011;16268;49.880;8.648;2023-03-11T02:20:19;4.05;;;0.90;;
29240;SDS011;16268;49.880;8.648;2023-03-11T02:22:56;9.20;;;0.90;;
29240;SDS011;16268;49.880;8.648;2023-03-11T02:25:34;5.20;;;0.88;;
29240;SDS011;16268;49.880;8.648;2023-03-11T02:28:09;3.92;;;1.00;;
29240;SDS011;16268;49.880;8.648;2023-03-11T02:30:38;7.15;;;0.93;;
29240;SDS011;16268;49.880;8.648;2023-03-11T02:33:06;3.65;;;0.88;;
29240;SDS011;16268;49.880;8.648;2023-03-11T02:35:32;5.10;;;1.08;;
29240;SDS011;16268;49.880;8.648;2023-03-11T02:37:58;9.70;;;1.10;;
29240;SDS011;16268;49.880;8.648;2023-03-11T02:42:52;4.88;;;0.93;;
29240;SDS011;16268;49.880;8.648;2023-03-11T02:45:21;4.50;;;0.98;;
29240;SDS011;16268;49.880;8.648;2023-03-11T02:47:48;5.95;;;1.00;;
29240;SDS011;16268;49.880;8.648;2023-03-11T02:50:16;4.22;;;0.98;;
29240;SDS011;16268;49.880;8.648;2023-03-11T02:52:42;6.53;;;1.20;;
29240;SDS011;16268;49.880;8.648;2023-03-11T02:55:09;5.75;;;1.13;;
29240;SDS011;16268;49.880;8.648;2023-03-11T02:57:40;4.72;;;0.90;;
29240;SDS011;16268;49.880;8.648;2023-03-11T03:00:06;7.05;;;1.20;;
29240;SDS011;16268;49.880;8.648;2023-03-11T03:02:40;5.32;;;1.15;;
29240;SDS011;16268;49.880;8.648;2023-03-11T03:05:07;4.75;;;1.00;;
29240;SDS011;16268;49.880;8.648;2023-03-11T03:07:33;5.60;;;1.10;;
29240;SDS011;16268;49.880;8.648;2023-03-11T03:09:59;5.53;;;1.00;;
29240;SDS011;16268;49.880;8.648;2023-03-11T03:12:24;4.40;;;0.98;;
29240;SDS011;16268;49.880;8.648;2023-03-11T03:14:50;4.82;;;1.05;;
29240;SDS011;16268;49.880;8.648;2023-03-11T03:17:15;4.57;;;1.27;;
29240;SDS011;16268;49.880;8.648;2023-03-11T03:19:41;7.47;;;1.20;;
29240;SDS011;16268;49.880;8.648;2023-03-11T03:22:07;6.47;;;1.20;;
29240;SDS011;16268;49.880;8.648;2023-03-11T03:24:32;5.30;;;1.05;;
29240;SDS011;16268;49.880;8.648;2023-03-11T03:26:58;4.45;;;1.05;;
29240;SDS011;16268;49.880;8.648;2023-03-11T03:29:23;5.40;;;1.15;;
29240;SDS011;16268;49.880;8.648;2023-03-11T03:31:49;7.55;;;1.20;;
29240;SDS011;16268;49.880;8.648;2023-03-11T03:34:14;7.03;;;1.10;;
29240;SDS011;16268;49.880;8.648;2023-03-11T03:36:40;4.95;;;1.23;;
29240;SDS011;16268;49.880;8.648;2023-03-11T03:39:05;5.88;;;1.00;;
29240;SDS011;16268;49.880;8.648;2023-03-11T03:41:31;4.50;;;1.27;;
29240;SDS011;16268;49.880;8.648;2023-03-11T03:43:56;4.75;;;0.95;;
29240;SDS011;16268;49.880;8.648;2023-03-11T03:46:23;5.63;;;1.42;;
29240;SDS011;16268;49.880;8.648;2023-03-11T03:48:48;5.40;;;1.42;;
29240;SDS011;16268;49.880;8.648;2023-03-11T03:51:14;6.88;;;1.15;;
29240;SDS011;16268;49.880;8.648;2023-03-11T03:53:41;6.53;;;1.13;;
29240;SDS011;16268;49.880;8.648;2023-03-11T03:56:07;6.43;;;1.42;;
29240;SDS011;16268;49.880;8.648;2023-03-11T03:58:35;7.35;;;1.33;;
29240;SDS011;16268;49.880;8.648;2023-03-11T04:01:00;7.72;;;1.40;;
29240;SDS011;16268;49.880;8.648;2023-03-11T04:03:27;8.18;;;1.30;;
29240;SDS011;16268;49.880;8.648;2023-03-11T04:05:53;5.03;;;1.08;;
29240;SDS011;16268;49.880;8.648;2023-03-11T04:08:19;7.55;;;1.65;;
29240;SDS011;16268;49.880;8.648;2023-03-11T04:10:54;4.68;;;1.35;;
29240;SDS011;16268;49.880;8.648;2023-03-11T04:13:21;6.22;;;1.20;;
29240;SDS011;16268;49.880;8.648;2023-03-11T04:15:47;11.20;;;1.45;;
29240;SDS011;16268;49.880;8.648;2023-03-11T04:18:12;6.93;;;1.23;;
29240;SDS011;16268;49.880;8.648;2023-03-11T04:20:38;5.22;;;1.10;;
29240;SDS011;16268;49.880;8.648;2023-03-11T04:23:03;8.73;;;1.40;;
29240;SDS011;16268;49.880;8.648;2023-03-11T04:25:29;5.88;;;1.30;;
29240;SDS011;16268;49.880;8.648;2023-03-11T04:27:55;7.20;;;1.35;;
29240;SDS011;16268;49.880;8.648;2023-03-11T04:30:20;5.88;;;1.33;;
29240;SDS011;16268;49.880;8.648;2023-03-11T04:32:46;8.20;;;1.20;;
29240;SDS011;16268;49.880;8.648;2023-03-11T04:35:11;6.80;;;1.27;;
29240;SDS011;16268;49.880;8.648;2023-03-11T04:37:37;9.85;;;1.30;;
29240;SDS011;16268;49.880;8.648;2023-03-11T04:40:03;9.27;;;1.20;;
29240;SDS011;16268;49.880;8.648;2023-03-11T04:42:30;6.45;;;1.55;;
29240;SDS011;16268;49.880;8.648;2023-03-11T04:44:55;9.80;;;1.67;;
29240;SDS011;16268;49.880;8.648;2023-03-11T04:47:21;6.80;;;1.23;;
29240;SDS011;16268;49.880;8.648;2023-03-11T04:49:47;5.88;;;1.35;;
29240;SDS011;16268;49.880;8.648;2023-03-11T04:52:12;6.68;;;1.20;;
29240;SDS011;16268;49.880;8.648;2023-03-11T04:54:38;8.32;;;1.33;;
29240;SDS011;16268;49.880;8.648;2023-03-11T04:57:03;7.88;;;1.48;;
29240;SDS011;16268;49.880;8.648;2023-03-11T04:59:29;6.93;;;1.30;;
29240;SDS011;16268;49.880;8.648;2023-03-11T05:01:55;5.93;;;1.40;;
29240;SDS011;16268;49.880;8.648;2023-03-11T05:04:20;9.73;;;1.38;;
29240;SDS011;16268;49.880;8.648;2023-03-11T05:06:46;6.85;;;1.60;;
29240;SDS011;16268;49.880;8.648;2023-03-11T05:09:14;9.90;;;1.92;;
29240;SDS011;16268;49.880;8.648;2023-03-11T05:11:40;4.68;;;1.42;;
29240;SDS011;16268;49.880;8.648;2023-03-11T05:14:05;6.70;;;1.50;;
29240;SDS011;16268;49.880;8.648;2023-03-11T05:16:31;7.95;;;1.48;;
29240;SDS011;16268;49.880;8.648;2023-03-11T05:18:56;5.57;;;1.70;;
29240;SDS011;16268;49.880;8.648;2023-03-11T05:21:22;5.97;;;1.40;;
29240;SDS011;16268;49.880;8.648;2023-03-11T05:23:48;6.53;;;1.35;;
29240;SDS011;16268;49.880;8.648;2023-03-11T05:26:13;5.75;;;1.38;;
29240;SDS011;16268;49.880;8.648;2023-03-11T05:28:39;4.82;;;1.90;;
29240;SDS011;16268;49.880;8.648;2023-03-11T05:31:08;6.10;;;1.30;;
29240;SDS011;16268;49.880;8.648;2023-03-11T05:33:34;6.85;;;1.65;;
29240;SDS011;16268;49.880;8.648;2023-03-11T05:36:07;6.35;;;1.50;;
29240;SDS011;16268;49.880;8.648;2023-03-11T05:38:34;10.32;;;1.58;;
29240;SDS011;16268;49.880;8.648;2023-03-11T05:41:01;8.68;;;1.70;;
29240;SDS011;16268;49.880;8.648;2023-03-11T05:43:26;6.53;;;1.50;;
29240;SDS011;16268;49.880;8.648;2023-03-11T05:45:52;8.13;;;1.73;;
29240;SDS011;16268;49.880;8.648;2023-03-11T05:48:18;8.45;;;1.70;;
29240;SDS011;16268;49.880;8.648;2023-03-11T05:50:43;5.43;;;1.83;;
29240;SDS011;16268;49.880;8.648;2023-03-11T05:53:09;7.57;;;1.80;;
29240;SDS011;16268;49.880;8.648;2023-03-11T05:55:34;9.20;;;1.83;;
29240;SDS011;16268;49.880;8.648;2023-03-11T05:58:00;8.60;;;1.65;;
29240;SDS011;16268;49.880;8.648;2023-03-11T06:00:25;9.25;;;1.63;;
29240;SDS011;16268;49.880;8.648;2023-03-11T06:02:53;7.00;;;1.92;;
29240;SDS011;16268;49.880;8.648;2023-03-11T06:05:19;4.20;;;1.20;;
29240;SDS011;16268;49.880;8.648;2023-03-11T06:07:44;8.98;;;1.70;;
29240;SDS011;16268;49.880;8.648;2023-03-11T06:10:10;8.43;;;1.77;;
29240;SDS011;16268;49.880;8.648;2023-03-11T06:12:36;6.88;;;1.90;;
29240;SDS011;16268;49.880;8.648;2023-03-11T06:15:02;8.20;;;1.98;;
29240;SDS011;16268;49.880;8.648;2023-03-11T06:17:29;8.63;;;2.08;;
29240;SDS011;16268;49.880;8.648;2023-03-11T06:19:55;6.10;;;1.60;;
29240;SDS011;16268;49.880;8.648;2023-03-11T06:22:20;9.18;;;1.75;;
29240;SDS011;16268;49.880;8.648;2023-03-11T06:24:46;6.40;;;1.67;;
29240;SDS011;16268;49.880;8.648;2023-03-11T06:27:11;7.78;;;2.05;;
29240;SDS011;16268;49.880;8.648;2023-03-11T06:29:37;7.13;;;1.70;;
29240;SDS011;16268;49.880;8.648;2023-03-11T06:32:02;11.70;;;2.38;;
29240;SDS011;16268;49.880;8.648;2023-03-11T06:34:28;7.00;;;2.20;;
29240;SDS011;16268;49.880;8.648;2023-03-11T06:36:54;7.57;;;2.28;;
29240;SDS011;16268;49.880;8.648;2023-03-11T06:39:19;10.77;;;2.50;;
29240;SDS011;16268;49.880;8.648;2023-03-11T06:41:45;9.57;;;2.17;;
29240;SDS011;16268;49.880;8.648;2023-03-11T06:44:10;7.68;;;2.40;;
29240;SDS011;16268;49.880;8.648;2023-03-11T06:46:36;6.47;;;2.20;;
29240;SDS011;16268;49.880;8.648;2023-03-11T06:49:01;10.38;;;1.85;;
29240;SDS011;16268;49.880;8.648;2023-03-11T06:51:27;9.23;;;2.08;;
29240;SDS011;16268;49.880;8.648;2023-03-11T06:53:53;7.63;;;1.80;;
29240;SDS011;16268;49.880;8.648;2023-03-11T06:56:19;12.05;;;2.35;;
29240;SDS011;16268;49.880;8.648;2023-03-11T06:58:46;6.00;;;1.95;;
29240;SDS011;16268;49.880;8.648;2023-03-11T07:01:13;8.65;;;2.00;;
29240;SDS011;16268;49.880;8.648;2023-03-11T07:03:40;11.05;;;2.10;;
29240;SDS011;16268;49.880;8.648;2023-03-11T07:06:09;7.85;;;2.40;;
29240;SDS011;16268;49.880;8.648;2023-03-11T07:08:49;8.02;;;1.92;;
29240;SDS011;16268;49.880;8.648;2023-03-11T07:11:17;10.45;;;2.10;;
29240;SDS011;16268;49.880;8.648;2023-03-11T07:13:45;7.22;;;1.95;;
29240;SDS011;16268;49.880;8.648;2023-03-11T07:16:12;9.25;;;1.77;;
29240;SDS011;16268;49.880;8.648;2023-03-11T07:18:43;7.60;;;2.22;;
29240;SDS011;16268;49.880;8.648;2023-03-11T07:21:10;8.07;;;1.92;;
29240;SDS011;16268;49.880;8.648;2023-03-11T07:23:39;8.55;;;2.50;;
29240;SDS011;16268;49.880;8.648;2023-03-11T07:26:06;8.75;;;1.70;;
29240;SDS011;16268;49.880;8.648;2023-03-11T07:28:36;9.15;;;1.70;;
29240;SDS011;16268;49.880;8.648;2023-03-11T07:31:09;7.20;;;1.55;;
29240;SDS011;16268;49.880;8.648;2023-03-11T07:33:37;6.65;;;1.83;;
29240;SDS011;16268;49.880;8.648;2023-03-11T07:36:06;7.95;;;1.83;;
29240;SDS011;16268;49.880;8.648;2023-03-11T07:38:33;9.88;;;2.20;;
29240;SDS011;16268;49.880;8.648;2023-03-11T07:40:59;8.38;;;1.92;;
29240;SDS011;16268;49.880;8.648;2023-03-11T07:43:24;8.75;;;2.10;;
29240;SDS011;16268;49.880;8.648;2023-03-11T07:45:50;13.88;;;1.92;;
29240;SDS011;16268;49.880;8.648;2023-03-11T07:48:16;9.02;;;1.83;;
29240;SDS011;16268;49.880;8.648;2023-03-11T07:50:41;8.57;;;2.03;;
29240;SDS011;16268;49.880;8.648;2023-03-11T07:53:07;9.68;;;2.35;;
29240;SDS011;16268;49.880;8.648;2023-03-11T07:55:33;9.73;;;1.63;;
29240;SDS011;16268;49.880;8.648;2023-03-11T07:57:58;13.32;;;1.60;;
29240;SDS011;16268;49.880;8.648;2023-03-11T08:00:24;8.30;;;1.55;;
29240;SDS011;16268;49.880;8.648;2023-03-11T08:02:50;6.15;;;1.58;;
29240;SDS011;16268;49.880;8.648;2023-03-11T08:05:16;7.80;;;2.00;;
29240;SDS011;16268;49.880;8.648;2023-03-11T08:07:44;8.55;;;2.13;;
29240;SDS011;16268;49.880;8.648;2023-03-11T08:10:10;8.02;;;1.70;;
29240;SDS011;16268;49.880;8.648;2023-03-11T08:12:36;9.35;;;1.75;;
29240;SDS011;16268;49.880;8.648;2023-03-11T08:15:01;10.48;;;1.85;;
29240;SDS011;16268;49.880;8.648;2023-03-11T08:17:27;5.63;;;1.60;;
29240;SDS011;16268;49.880;8.648;2023-03-11T08:19:53;8.18;;;1.67;;
29240;SDS011;16268;49.880;8.648;2023-03-11T08:22:18;8.98;;;1.70;;
29240;SDS011;16268;49.880;8.648;2023-03-11T08:24:44;12.65;;;2.25;;
29240;SDS011;16268;49.880;8.648;2023-03-11T08:27:09;7.43;;;1.80;;
29240;SDS011;16268;49.880;8.648;2023-03-11T08:29:36;8.57;;;1.98;;
29240;SDS011;16268;49.880;8.648;2023-03-11T08:32:02;11.30;;;2.00;;
29240;SDS011;16268;49.880;8.648;2023-03-11T08:34:28;6.93;;;1.85;;
29240;SDS011;16268;49.880;8.648;2023-03-11T08:36:53;8.15;;;1.60;;
29240;SDS011;16268;49.880;8.648;2023-03-11T08:39:19;7.80;;;1.73;;
29240;SDS011;16268;49.880;8.648;2023-03-11T08:41:44;6.10;;;1.77;;
29240;SDS011;16268;49.880;8.648;2023-03-11T08:44:10;9.73;;;1.90;;
29240;SDS011;16268;49.880;8.648;2023-03-11T08:46:36;7.78;;;1.60;;
29240;SDS011;16268;49.880;8.648;2023-03-11T08:49:03;6.95;;;1.75;;
29240;SDS011;16268;49.880;8.648;2023-03-11T08:51:29;6.68;;;1.63;;
29240;SDS011;16268;49.880;8.648;2023-03-11T08:53:56;8.93;;;1.92;;
29240;SDS011;16268;49.880;8.648;2023-03-11T08:56:22;5.38;;;1.45;;
29240;SDS011;16268;49.880;8.648;2023-03-11T08:58:48;6.68;;;1.67;;
29240;SDS011;16268;49.880;8.648;2023-03-11T09:01:14;9.50;;;1.55;;
29240;SDS011;16268;49.880;8.648;2023-03-11T09:03:40;10.65;;;1.95;;
29240;SDS011;16268;49.880;8.648;2023-03-11T09:06:07;6.70;;;1.30;;
29240;SDS011;16268;49.880;8.648;2023-03-11T09:08:35;4.30;;;1.17;;
29240;SDS011;16268;49.880;8.648;2023-03-11T09:11:00;5.70;;;1.10;;
29240;SDS011;16268;49.880;8.648;2023-03-11T09:13:26;7.18;;;1.48;;
29240;SDS011;16268;49.880;8.648;2023-03-11T09:15:53;7.80;;;1.48;;
29240;SDS011;16268;49.880;8.648;2023-03-11T09:18:19;5.97;;;1.63;;
29240;SDS011;16268;49.880;8.648;2023-03-11T09:20:44;6.43;;;2.30;;
29240;SDS011;16268;49.880;8.648;2023-03-11T09:23:11;10.25;;;3.95;;
29240;SDS011;16268;49.880;8.648;2023-03-11T09:25:38;6.57;;;1.30;;
29240;SDS011;16268;49.880;8.648;2023-03-11T09:28:04;6.43;;;1.27;;
29240;SDS011;16268;49.880;8.648;2023-03-11T09:30:30;5.00;;;1.20;;
29240;SDS011;16268;49.880;8.648;2023-03-11T09:32:56;3.83;;;1.40;;
29240;SDS011;16268;49.880;8.648;2023-03-11T09:35:22;4.57;;;1.00;;
29240;SDS011;16268;49.880;8.648;2023-03-11T09:37:48;7.85;;;1.55;;
29240;SDS011;16268;49.880;8.648;2023-03-11T09:40:14;6.10;;;1.20;;
29240;SDS011;16268;49.880;8.648;2023-03-11T09:42:56;5.25;;;1.42;;
29240;SDS011;16268;49.880;8.648;2023-03-11T09:45:31;6.03;;;1.20;;
29240;SDS011;16268;49.880;8.648;2023-03-11T09:50:47;5.53;;;1.42;;
29240;SDS011;16268;49.880;8.648;2023-03-11T09:53:40;6.82;;;1.27;;
29240;SDS011;16268;49.880;8.648;2023-03-11T09:56:08;7.70;;;1.27;;
29240;SDS011;16268;49.880;8.648;2023-03-11T10:01:23;6.25;;;1.40;;
29240;SDS011;16268;49.880;8.648;2023-03-11T10:03:56;9.25;;;2.53;;
29240;SDS011;16268;49.880;8.648;2023-03-11T10:06:34;7.20;;;1.50;;
29240;SDS011;16268;49.880;8.648;2023-03-11T10:09:13;6.28;;;1.90;;
29240;SDS011;16268;49.880;8.648;2023-03-11T10:17:56;5.85;;;1.30;;
29240;SDS011;16268;49.880;8.648;2023-03-11T10:21:02;4.75;;;1.13;;
29240;SDS011;16268;49.880;8.648;2023-03-11T10:23:52;7.30;;;1.67;;
29240;SDS011;16268;49.880;8.648;2023-03-11T10:26:30;7.18;;;1.10;;
29240;SDS011;16268;49.880;8.648;2023-03-11T10:29:22;6.93;;;1.48;;
29240;SDS011;16268;49.880;8.648;2023-03-11T10:32:05;8.80;;;2.33;;
29240;SDS011;16268;49.880;8.648;2023-03-11T10:34:38;5.97;;;1.70;;
29240;SDS011;16268;49.880;8.648;2023-03-11T10:37:38;6.93;;;1.38;;
29240;SDS011;16268;49.880;8.648;2023-03-11T10:40:13;5.90;;;1.48;;
29240;SDS011;16268;49.880;8.648;2023-03-11T10:42:43;8.10;;;1.10;;
29240;SDS011;16268;49.880;8.648;2023-03-11T10:45:13;4.50;;;1.33;;
29240;SDS011;16268;49.880;8.648;2023-03-11T10:47:39;5.60;;;1.50;;
29240;SDS011;16268;49.880;8.648;2023-03-11T10:50:05;6.53;;;1.30;;
29240;SDS011;16268;49.880;8.648;2023-03-11T10:52:32;3.80;;;1.05;;
29240;SDS011;16268;49.880;8.648;2023-03-11T10:55:24;5.45;;;1.35;;
29240;SDS011;16268;49.880;8.648;2023-03-11T10:57:50;4.43;;;1.15;;
29240;SDS011;16268;49.880;8.648;2023-03-11T11:00:28;4.80;;;1.15;;
29240;SDS011;16268;49.880;8.648;2023-03-11T11:02:55;4.75;;;1.20;;
29240;SDS011;16268;49.880;8.648;2023-03-11T11:10:52;6.03;;;1.40;;
29240;SDS011;16268;49.880;8.648;2023-03-11T11:13:28;5.05;;;1.42;;
29240;SDS011;16268;49.880;8.648;2023-03-11T11:16:00;6.05;;;1.20;;
29240;SDS011;16268;49.880;8.648;2023-03-11T11:21:13;4.53;;;1.10;;
29240;SDS011;16268;49.880;8.648;2023-03-11T11:23:42;6.80;;;1.30;;
29240;SDS011;16268;49.880;8.648;2023-03-11T11:26:19;8.02;;;1.55;;
29240;SDS011;16268;49.880;8.648;2023-03-11T11:31:31;6.57;;;1.73;;
29240;SDS011;16268;49.880;8.648;2023-03-11T11:33:57;6.80;;;1.63;;
29240;SDS011;16268;49.880;8.648;2023-03-11T11:36:33;5.47;;;1.60;;
29240;SDS011;16268;49.880;8.648;2023-03-11T11:39:00;9.13;;;1.80;;
29240;SDS011;16268;49.880;8.648;2023-03-11T11:41:29;8.32;;;2.15;;
29240;SDS011;16268;49.880;8.648;2023-03-11T11:44:00;8.18;;;1.98;;
29240;SDS011;16268;49.880;8.648;2023-03-11T11:46:45;4.70;;;1.40;;
29240;SDS011;16268;49.880;8.648;2023-03-11T11:49:18;7.22;;;1.70;;
29240;SDS011;16268;49.880;8.648;2023-03-11T11:57:11;7.90;;;1.65;;
29240;SDS011;16268;49.880;8.648;2023-03-11T11:59:38;5.43;;;1.17;;
29240;SDS011;16268;49.880;8.648;2023-03-11T12:05:10;6.03;;;1.42;;
29240;SDS011;16268;49.880;8.648;2023-03-11T12:07:56;8.00;;;2.20;;
29240;SDS011;16268;49.880;8.648;2023-03-11T12:10:52;5.00;;;1.42;;
29240;SDS011;16268;49.880;8.648;2023-03-11T12:19:19;5.78;;;1.65;;
29240;SDS011;16268;49.880;8.648;2023-03-11T12:27:21;4.78;;;1.25;;
29240;SDS011;16268;49.880;8.648;2023-03-11T12:29:55;5.32;;;1.55;;
29240;SDS011;16268;49.880;8.648;2023-03-11T12:32:39;6.95;;;1.50;;
29240;SDS011;16268;49.880;8.648;2023-03-11T12:35:25;4.57;;;1.25;;
29240;SDS011;16268;49.880;8.648;2023-03-11T12:37:54;7.00;;;1.75;;
29240;SDS011;16268;49.880;8.648;2023-03-11T12:45:57;6.85;;;1.42;;
29240;SDS011;16268;49.880;8.648;2023-03-11T12:53:53;6.15;;;1.30;;
29240;SDS011;16268;49.880;8.648;2023-03-11T13:01:50;6.65;;;1.27;;
29240;SDS011;16268;49.880;8.648;2023-03-11T13:07:02;4.43;;;1.48;;
29240;SDS011;16268;49.880;8.648;2023-03-11T13:09:58;5.82;;;1.63;;
29240;SDS011;16268;49.880;8.648;2023-03-11T13:12:44;5.10;;;1.42;;
29240;SDS011;16268;49.880;8.648;2023-03-11T13:33:57;7.90;;;2.50;;
29240;SDS011;16268;49.880;8.648;2023-03-11T13:37:11;6.32;;;2.30;;
29240;SDS011;16268;49.880;8.648;2023-03-11T13:39:38;5.80;;;1.60;;
29240;SDS011;16268;49.880;8.648;2023-03-11T13:42:36;5.78;;;1.90;;
29240;SDS011;16268;49.880;8.648;2023-03-11T13:45:29;6.03;;;1.60;;
29240;SDS011;16268;49.880;8.648;2023-03-11T13:47:59;5.30;;;1.60;;
29240;SDS011;16268;49.880;8.648;2023-03-11T13:50:30;4.90;;;1.45;;
29240;SDS011;16268;49.880;8.648;2023-03-11T13:53:01;5.85;;;1.35;;
29240;SDS011;16268;49.880;8.648;2023-03-11T13:55:40;6.50;;;1.55;;
29240;SDS011;16268;49.880;8.648;2023-03-11T13:58:28;8.80;;;1.30;;
29240;SDS011;16268;49.880;8.648;2023-03-11T14:03:23;4.80;;;1.63;;
29240;SDS011;16268;49.880;8.648;2023-03-11T14:05:57;6.53;;;1.65;;
29240;SDS011;16268;49.880;8.648;2023-03-11T14:08:30;9.25;;;1.50;;
29240;SDS011;16268;49.880;8.648;2023-03-11T14:10:59;7.75;;;1.95;;
29240;SDS011;16268;49.880;8.648;2023-03-11T14:16:16;5.25;;;1.50;;
29240;SDS011;16268;49.880;8.648;2023-03-11T14:18:47;8.13;;;1.45;;
29240;SDS011;16268;49.880;8.648;2023-03-11T14:21:32;5.72;;;1.55;;
29240;SDS011;16268;49.880;8.648;2023-03-11T14:23:59;5.53;;;1.55;;
29240;SDS011;16268;49.880;8.648;2023-03-11T14:28:56;4.80;;;1.23;;
29240;SDS011;16268;49.880;8.648;2023-03-11T14:33:54;4.72;;;1.40;;
29240;SDS011;16268;49.880;8.648;2023-03-11T14:36:28;7.78;;;1.73;;
29240;SDS011;16268;49.880;8.648;2023-03-11T14:38:55;5.85;;;1.50;;
29240;SDS011;16268;49.880;8.648;2023-03-11T14:41:21;5.00;;;1.40;;
29240;SDS011;16268;49.880;8.648;2023-03-11T14:43:47;5.63;;;1.60;;
29240;SDS011;16268;49.880;8.648;2023-03-11T14:46:20;3.35;;;1.17;;
29240;SDS011;16268;49.880;8.648;2023-03-11T14:48:50;9.63;;;3.08;;
29240;SDS011;16268;49.880;8.648;2023-03-11T14:51:18;5.68;;;1.35;;
29240;SDS011;16268;49.880;8.648;2023-03-11T14:56:28;7.00;;;1.35;;
29240;SDS011;16268;49.880;8.648;2023-03-11T14:59:02;5.10;;;1.30;;
29240;SDS011;16268;49.880;8.648;2023-03-11T15:01:37;7.17;;;2.97;;
29240;SDS011;16268;49.880;8.648;2023-03-11T15:04:13;3.72;;;1.40;;
29240;SDS011;16268;49.880;8.648;2023-03-11T15:06:58;4.85;;;1.38;;
29240;SDS011;16268;49.880;8.648;2023-03-11T15:09:25;4.50;;;1.30;;
29240;SDS011;16268;49.880;8.648;2023-03-11T15:11:58;6.55;;;1.58;;
29240;SDS011;16268;49.880;8.648;2023-03-11T15:14:33;6.63;;;1.55;;
29240;SDS011;16268;49.880;8.648;2023-03-11T15:19:51;8.60;;;1.60;;
29240;SDS011;16268;49.880;8.648;2023-03-11T15:22:22;7.07;;;1.75;;
29240;SDS011;16268;49.880;8.648;2023-03-11T15:24:52;6.68;;;1.67;;
29240;SDS011;16268;49.880;8.648;2023-03-11T15:27:22;7.85;;;1.48;;
29240;SDS011;16268;49.880;8.648;2023-03-11T15:29:54;4.07;;;1.30;;
29240;SDS011;16268;49.880;8.648;2023-03-11T15:32:22;5.20;;;1.20;;
29240;SDS011;16268;49.880;8.648;2023-03-11T15:34:58;5.18;;;1.38;;
29240;SDS011;16268;49.880;8.648;2023-03-11T15:37:25;4.95;;;1.60;;
29240;SDS011;16268;49.880;8.648;2023-03-11T15:39:51;4.93;;;1.38;;
29240;SDS011;16268;49.880;8.648;2023-03-11T15:42:21;5.63;;;1.33;;
29240;SDS011;16268;49.880;8.648;2023-03-11T15:44:55;5.97;;;1.65;;
29240;SDS011;16268;49.880;8.648;2023-03-11T15:47:32;5.78;;;1.33;;
29240;SDS011;16268;49.880;8.648;2023-03-11T15:50:01;5.20;;;1.40;;
29240;SDS011;16268;49.880;8.648;2023-03-11T15:52:37;5.88;;;1.42;;
29240;SDS011;16268;49.880;8.648;2023-03-11T15:55:02;6.13;;;1.58;;
29240;SDS011;16268;49.880;8.648;2023-03-11T15:57:28;4.78;;;1.17;;
29240;SDS011;16268;49.880;8.648;2023-03-11T15:59:54;7.97;;;1.38;;
29240;SDS011;16268;49.880;8.648;2023-03-11T16:02:24;6.05;;;1.63;;
29240;SDS011;16268;49.880;8.648;2023-03-11T16:04:52;6.90;;;1.98;;
29240;SDS011;16268;49.880;8.648;2023-03-11T16:07:18;12.25;;;5.00;;
29240;SDS011;16268;49.880;8.648;2023-03-11T16:09:43;8.23;;;3.05;;
29240;SDS011;16268;49.880;8.648;2023-03-11T16:12:16;7.05;;;1.95;;
29240;SDS011;16268;49.880;8.648;2023-03-11T16:14:44;7.32;;;1.88;;
29240;SDS011;16268;49.880;8.648;2023-03-11T16:17:11;12.10;;;3.42;;
29240;SDS011;16268;49.880;8.648;2023-03-11T16:19:49;9.07;;;3.53;;
29240;SDS011;16268;49.880;8.648;2023-03-11T16:22:15;9.63;;;2.28;;
29240;SDS011;16268;49.880;8.648;2023-03-11T16:24:44;5.85;;;1.70;;
29240;SDS011;16268;49.880;8.648;2023-03-11T16:27:12;5.78;;;1.70;;
29240;SDS011;16268;49.880;8.648;2023-03-11T16:29:39;6.75;;;2.92;;
29240;SDS011;16268;49.880;8.648;2023-03-11T16:32:05;8.68;;;2.92;;
29240;SDS011;16268;49.880;8.648;2023-03-11T16:34:31;7.53;;;2.97;;
29240;SDS011;16268;49.880;8.648;2023-03-11T16:36:56;5.60;;;1.58;;
29240;SDS011;16268;49.880;8.648;2023-03-11T16:39:22;5.63;;;1.60;;